createdAt,value
2018-07-01T00:00:08.404Z,0
2018-07-01T00:00:33.990Z,0
2018-07-01T00:00:59.546Z,0
2018-07-01T00:01:25.127Z,0
2018-07-01T00:01:50.709Z,0
2018-07-01T00:02:16.288Z,0
2018-07-01T00:02:41.882Z,0
2018-07-01T00:03:07.431Z,0
2018-07-01T00:03:33.027Z,0
2018-07-01T00:03:58.606Z,0
2018-07-01T00:04:24.181Z,0
2018-07-01T00:04:49.792Z,0
2018-07-01T00:05:15.346Z,0
2018-07-01T00:05:40.931Z,0
2018-07-01T00:06:06.496Z,0
2018-07-01T00:06:32.089Z,0
2018-07-01T00:06:57.637Z,0
2018-07-01T00:07:23.206Z,0
2018-07-01T00:07:48.786Z,0
2018-07-01T00:08:14.349Z,0
2018-07-01T00:08:39.932Z,0
2018-07-01T00:09:05.523Z,0
2018-07-01T00:09:31.116Z,0
2018-07-01T00:09:56.708Z,0
2018-07-01T00:10:22.288Z,0
2018-07-01T00:10:47.899Z,0
2018-07-01T00:11:13.478Z,0
2018-07-01T00:11:39.049Z,0
2018-07-01T00:12:04.696Z,0
2018-07-01T00:12:30.245Z,0
2018-07-01T00:12:55.806Z,0
2018-07-01T00:13:21.376Z,0
2018-07-01T00:13:46.940Z,0
2018-07-01T00:14:12.522Z,0
2018-07-01T00:14:38.158Z,0
2018-07-01T00:15:03.678Z,0
2018-07-01T00:15:29.232Z,0
2018-07-01T00:15:54.808Z,0
2018-07-01T00:16:20.372Z,0
2018-07-01T00:16:45.930Z,0
2018-07-01T00:17:11.505Z,0
2018-07-01T00:17:37.122Z,0
2018-07-01T00:18:02.692Z,0
2018-07-01T00:18:28.271Z,0
2018-07-01T00:18:53.838Z,0
2018-07-01T00:19:19.403Z,0
2018-07-01T00:19:44.998Z,0
2018-07-01T00:20:10.577Z,0
2018-07-01T00:20:36.134Z,0
2018-07-01T00:21:01.690Z,0
2018-07-01T00:21:27.268Z,0
2018-07-01T00:21:52.830Z,0
2018-07-01T00:22:18.402Z,0
2018-07-01T00:22:43.983Z,0
2018-07-01T00:23:09.535Z,0
2018-07-01T00:23:35.118Z,0
2018-07-01T00:24:00.708Z,0
2018-07-01T00:24:26.282Z,0
2018-07-01T00:24:51.837Z,0
2018-07-01T00:25:17.404Z,0
2018-07-01T00:25:42.972Z,0
2018-07-01T00:26:08.519Z,0
2018-07-01T00:26:34.078Z,0
2018-07-01T00:26:59.676Z,0
2018-07-01T00:27:25.261Z,0
2018-07-01T00:27:50.819Z,0
2018-07-01T00:28:16.393Z,0
2018-07-01T00:28:41.969Z,0
2018-07-01T00:29:07.547Z,0
2018-07-01T00:29:33.130Z,0
2018-07-01T00:29:58.692Z,0
2018-07-01T00:30:24.282Z,0
2018-07-01T00:30:49.836Z,0
2018-07-01T00:31:15.406Z,0
2018-07-01T00:31:40.962Z,0
2018-07-01T00:32:06.557Z,0
2018-07-01T00:32:32.114Z,0
2018-07-01T00:32:57.674Z,0
2018-07-01T00:33:23.243Z,0
2018-07-01T00:33:48.807Z,0
2018-07-01T00:34:14.374Z,0
2018-07-01T00:34:39.930Z,0
2018-07-01T00:35:05.495Z,0
2018-07-01T00:35:31.084Z,0
2018-07-01T00:35:56.662Z,0
2018-07-01T00:36:22.247Z,0
2018-07-01T00:36:47.824Z,0
2018-07-01T00:37:13.396Z,0
2018-07-01T00:37:38.997Z,0
2018-07-01T00:38:04.524Z,0
2018-07-01T00:38:30.103Z,0
2018-07-01T00:38:55.670Z,0
2018-07-01T00:39:21.258Z,0
2018-07-01T00:39:46.825Z,0
2018-07-01T00:40:12.376Z,0
2018-07-01T00:40:37.958Z,0
2018-07-01T00:41:03.498Z,0
2018-07-01T00:41:29.066Z,0
2018-07-01T00:41:54.653Z,0
2018-07-01T00:42:20.224Z,0
2018-07-01T00:42:45.812Z,0
2018-07-01T00:43:11.382Z,0
2018-07-01T00:43:36.965Z,0
2018-07-01T00:44:02.545Z,0
2018-07-01T00:44:28.095Z,0
2018-07-01T00:44:53.689Z,0
2018-07-01T00:45:19.318Z,0
2018-07-01T00:45:44.874Z,0
2018-07-01T00:46:10.440Z,0
2018-07-01T00:46:36.011Z,0
2018-07-01T00:47:01.550Z,0
2018-07-01T00:47:27.120Z,0
2018-07-01T00:47:52.687Z,0
2018-07-01T00:48:18.248Z,0
2018-07-01T00:48:43.814Z,0
2018-07-01T00:49:09.382Z,0
2018-07-01T00:49:34.990Z,0
2018-07-01T00:50:00.562Z,0
2018-07-01T00:50:26.145Z,0
2018-07-01T00:50:51.704Z,0
2018-07-01T00:51:17.286Z,0
2018-07-01T00:51:42.844Z,0
2018-07-01T00:52:08.428Z,0
2018-07-01T00:52:33.989Z,0
2018-07-01T00:52:59.560Z,0
2018-07-01T00:53:25.152Z,0
2018-07-01T00:53:50.742Z,0
2018-07-01T00:54:16.300Z,0
2018-07-01T00:54:41.859Z,0
2018-07-01T00:55:07.434Z,0
2018-07-01T00:55:33.006Z,0
2018-07-01T00:55:58.567Z,0
2018-07-01T00:56:24.139Z,0
2018-07-01T00:56:49.722Z,0
2018-07-01T00:57:15.281Z,0
2018-07-01T00:57:40.866Z,0
2018-07-01T00:58:06.379Z,0
2018-07-01T00:58:31.947Z,0
2018-07-01T00:58:57.536Z,0
2018-07-01T00:59:23.115Z,0
2018-07-01T00:59:48.672Z,0
2018-07-01T01:00:14.223Z,0
2018-07-01T01:00:39.832Z,0
2018-07-01T01:01:05.388Z,0
2018-07-01T01:01:30.945Z,0
2018-07-01T01:01:56.530Z,0
2018-07-01T01:02:22.095Z,0
2018-07-01T01:02:47.653Z,0
2018-07-01T01:03:13.225Z,0
2018-07-01T01:03:38.813Z,0
2018-07-01T01:04:04.373Z,0
2018-07-01T01:04:29.926Z,0
2018-07-01T01:04:55.503Z,0
2018-07-01T01:05:21.085Z,0
2018-07-01T01:05:46.658Z,0
2018-07-01T01:06:12.230Z,0
2018-07-01T01:06:37.794Z,0
2018-07-01T01:07:03.355Z,0
2018-07-01T01:07:28.965Z,0
2018-07-01T01:07:54.518Z,0
2018-07-01T01:08:20.060Z,0
2018-07-01T01:08:45.629Z,0
2018-07-01T01:09:11.223Z,0
2018-07-01T01:09:36.764Z,0
2018-07-01T01:10:02.334Z,0
2018-07-01T01:10:27.913Z,0
2018-07-01T01:10:53.485Z,0
2018-07-01T01:11:19.036Z,0
2018-07-01T01:11:44.663Z,0
2018-07-01T01:12:10.241Z,0
2018-07-01T01:12:35.794Z,0
2018-07-01T01:13:01.358Z,0
2018-07-01T01:13:26.928Z,0
2018-07-01T01:13:52.492Z,0
2018-07-01T01:14:18.076Z,0
2018-07-01T01:14:43.631Z,0
2018-07-01T01:15:09.209Z,0
2018-07-01T01:15:34.756Z,0
2018-07-01T01:16:00.340Z,0
2018-07-01T01:16:25.919Z,0
2018-07-01T01:16:51.474Z,0
2018-07-01T01:17:17.061Z,0
2018-07-01T01:17:42.622Z,0
2018-07-01T01:18:08.171Z,0
2018-07-01T01:18:33.740Z,0
2018-07-01T01:18:59.305Z,0
2018-07-01T01:19:24.870Z,0
2018-07-01T01:19:50.433Z,0
2018-07-01T01:20:16.010Z,0
2018-07-01T01:20:41.572Z,0
2018-07-01T01:21:07.148Z,0
2018-07-01T01:21:32.716Z,0
2018-07-01T01:21:58.263Z,0
2018-07-01T01:22:23.876Z,0
2018-07-01T01:22:49.450Z,0
2018-07-01T01:23:15.012Z,0
2018-07-01T01:23:40.567Z,0
2018-07-01T01:24:06.125Z,0
2018-07-01T01:24:31.694Z,0
2018-07-01T01:24:57.285Z,0
2018-07-01T01:25:22.845Z,0
2018-07-01T01:25:48.411Z,0
2018-07-01T01:26:14.003Z,0
2018-07-01T01:26:39.572Z,0
2018-07-01T01:27:05.125Z,0
2018-07-01T01:27:30.696Z,0
2018-07-01T01:27:56.265Z,0
2018-07-01T01:28:21.838Z,0
2018-07-01T01:28:47.397Z,0
2018-07-01T01:29:12.961Z,0
2018-07-01T01:29:38.510Z,0
2018-07-01T01:30:04.102Z,0
2018-07-01T01:30:29.656Z,0
2018-07-01T01:30:55.234Z,0
2018-07-01T01:31:20.829Z,0
2018-07-01T01:31:46.402Z,0
2018-07-01T01:32:12.004Z,0
2018-07-01T01:32:37.567Z,0
2018-07-01T01:33:03.144Z,0
2018-07-01T01:33:28.707Z,0
2018-07-01T01:33:54.274Z,0
2018-07-01T01:34:19.834Z,0
2018-07-01T01:34:45.380Z,0
2018-07-01T01:35:10.975Z,0
2018-07-01T01:35:36.532Z,0
2018-07-01T01:36:02.088Z,0
2018-07-01T01:36:27.660Z,0
2018-07-01T01:36:53.227Z,0
2018-07-01T01:37:18.796Z,0
2018-07-01T01:37:44.353Z,0
2018-07-01T01:38:09.928Z,0
2018-07-01T01:38:35.501Z,0
2018-07-01T01:39:01.091Z,0
2018-07-01T01:39:26.655Z,0
2018-07-01T01:39:52.291Z,0
2018-07-01T01:40:17.895Z,0
2018-07-01T01:40:43.455Z,0
2018-07-01T01:41:09.027Z,0
2018-07-01T01:41:34.609Z,0
2018-07-01T01:42:00.188Z,0
2018-07-01T01:42:25.773Z,0
2018-07-01T01:42:51.341Z,0
2018-07-01T01:43:16.911Z,0
2018-07-01T01:43:42.479Z,0
2018-07-01T01:44:08.051Z,0
2018-07-01T01:44:33.680Z,0
2018-07-01T01:44:59.227Z,0
2018-07-01T01:45:24.826Z,0
2018-07-01T01:45:50.383Z,0
2018-07-01T01:46:15.975Z,0
2018-07-01T01:46:41.532Z,0
2018-07-01T01:47:07.109Z,0
2018-07-01T01:47:32.680Z,0
2018-07-01T01:47:58.248Z,0
2018-07-01T01:48:23.824Z,0
2018-07-01T01:48:49.384Z,0
2018-07-01T01:49:14.936Z,0
2018-07-01T01:49:40.495Z,0
2018-07-01T01:50:06.093Z,0
2018-07-01T01:50:31.677Z,0
2018-07-01T01:50:57.236Z,0
2018-07-01T01:51:22.825Z,0
2018-07-01T01:51:48.403Z,0
2018-07-01T01:52:13.967Z,0
2018-07-01T01:52:39.515Z,0
2018-07-01T01:53:05.099Z,0
2018-07-01T01:53:30.662Z,0
2018-07-01T01:53:56.219Z,0
2018-07-01T01:54:21.785Z,0
2018-07-01T01:54:47.372Z,0
2018-07-01T01:55:12.919Z,0
2018-07-01T01:55:38.481Z,0
2018-07-01T01:56:04.047Z,0
2018-07-01T01:56:29.611Z,0
2018-07-01T01:56:55.184Z,0
2018-07-01T01:57:20.777Z,0
2018-07-01T01:57:46.365Z,0
2018-07-01T01:58:11.933Z,0
2018-07-01T01:58:37.495Z,0
2018-07-01T01:59:03.075Z,0
2018-07-01T01:59:28.627Z,0
2018-07-01T01:59:54.183Z,0
2018-07-01T02:00:19.753Z,0
2018-07-01T02:00:45.310Z,0
2018-07-01T02:01:10.863Z,0
2018-07-01T02:01:36.466Z,0
2018-07-01T02:02:02.059Z,0
2018-07-01T02:02:27.627Z,0
2018-07-01T02:02:53.223Z,0
2018-07-01T02:03:18.804Z,0
2018-07-01T02:03:44.383Z,0
2018-07-01T02:04:09.969Z,0
2018-07-01T02:04:35.556Z,0
2018-07-01T02:05:01.106Z,0
2018-07-01T02:05:26.667Z,0
2018-07-01T02:05:52.226Z,0
2018-07-01T02:06:17.789Z,0
2018-07-01T02:06:43.368Z,0
2018-07-01T02:07:08.976Z,0
2018-07-01T02:07:34.566Z,0
2018-07-01T02:08:00.130Z,0
2018-07-01T02:08:25.680Z,0
2018-07-01T02:08:51.266Z,0
2018-07-01T02:09:16.853Z,0
2018-07-01T02:09:42.419Z,0
2018-07-01T02:10:07.996Z,0
2018-07-01T02:10:33.575Z,0
2018-07-01T02:10:59.156Z,0
2018-07-01T02:11:24.720Z,0
2018-07-01T02:11:50.287Z,0
2018-07-01T02:12:15.863Z,0
2018-07-01T02:12:41.437Z,0
2018-07-01T02:13:06.991Z,0
2018-07-01T02:13:32.577Z,0
2018-07-01T02:13:58.155Z,0
2018-07-01T02:14:23.714Z,0
2018-07-01T02:14:49.295Z,0
2018-07-01T02:15:14.871Z,0
2018-07-01T02:15:40.463Z,0
2018-07-01T02:16:06.037Z,0
2018-07-01T02:16:31.581Z,0
2018-07-01T02:16:57.153Z,0
2018-07-01T02:17:22.725Z,0
2018-07-01T02:17:48.290Z,0
2018-07-01T02:18:13.855Z,0
2018-07-01T02:18:39.431Z,0
2018-07-01T02:19:04.987Z,0
2018-07-01T02:19:30.593Z,0
2018-07-01T02:19:56.173Z,0
2018-07-01T02:20:21.738Z,0
2018-07-01T02:20:47.285Z,0
2018-07-01T02:21:12.863Z,0
2018-07-01T02:21:38.430Z,0
2018-07-01T02:22:03.989Z,0
2018-07-01T02:22:29.549Z,0
2018-07-01T02:22:55.109Z,0
2018-07-01T02:23:20.701Z,0
2018-07-01T02:23:46.261Z,0
2018-07-01T02:24:11.866Z,0
2018-07-01T02:24:37.442Z,0
2018-07-01T02:25:03.005Z,0
2018-07-01T02:25:28.563Z,0
2018-07-01T02:25:54.135Z,0
2018-07-01T02:26:19.740Z,0
2018-07-01T02:26:45.323Z,0
2018-07-01T02:27:10.891Z,0
2018-07-01T02:27:36.461Z,0
2018-07-01T02:28:02.833Z,0
2018-07-01T02:28:27.579Z,0
2018-07-01T02:28:53.137Z,0
2018-07-01T02:29:18.699Z,0
2018-07-01T02:29:44.257Z,0
2018-07-01T02:30:09.833Z,0
2018-07-01T02:30:35.399Z,0
2018-07-01T02:31:00.943Z,0
2018-07-01T02:31:26.499Z,0
2018-07-01T02:31:52.071Z,0
2018-07-01T02:32:17.664Z,0
2018-07-01T02:32:43.259Z,0
2018-07-01T02:33:08.842Z,0
2018-07-01T02:33:34.404Z,0
2018-07-01T02:33:59.953Z,0
2018-07-01T02:34:25.535Z,0
2018-07-01T02:34:51.098Z,0
2018-07-01T02:35:16.720Z,0
2018-07-01T02:35:42.243Z,0
2018-07-01T02:36:07.817Z,0
2018-07-01T02:36:33.370Z,0
2018-07-01T02:36:58.997Z,0
2018-07-01T02:37:24.627Z,0
2018-07-01T02:37:50.168Z,0
2018-07-01T02:38:15.747Z,0
2018-07-01T02:38:41.320Z,0
2018-07-01T02:39:06.873Z,0
2018-07-01T02:39:32.440Z,0
2018-07-01T02:39:57.997Z,0
2018-07-01T02:40:23.566Z,0
2018-07-01T02:40:49.133Z,0
2018-07-01T02:41:14.703Z,0
2018-07-01T02:41:40.344Z,0
2018-07-01T02:42:05.920Z,0
2018-07-01T02:42:31.463Z,0
2018-07-01T02:42:57.036Z,0
2018-07-01T02:43:22.617Z,0
2018-07-01T02:43:48.197Z,0
2018-07-01T02:44:13.741Z,0
2018-07-01T02:44:39.287Z,0
2018-07-01T02:45:04.846Z,0
2018-07-01T02:45:30.428Z,0
2018-07-01T02:45:56.047Z,0
2018-07-01T02:46:21.585Z,0
2018-07-01T02:46:47.161Z,0
2018-07-01T02:47:12.744Z,0
2018-07-01T02:47:38.324Z,0
2018-07-01T02:48:03.877Z,0
2018-07-01T02:48:29.441Z,0
2018-07-01T02:48:55.018Z,0
2018-07-01T02:49:20.577Z,0
2018-07-01T02:49:46.139Z,0
2018-07-01T02:50:11.704Z,0
2018-07-01T02:50:37.255Z,0
2018-07-01T02:51:02.835Z,0
2018-07-01T02:51:28.423Z,0
2018-07-01T02:51:53.972Z,0
2018-07-01T02:52:19.551Z,0
2018-07-01T02:52:45.117Z,0
2018-07-01T02:53:10.709Z,0
2018-07-01T02:53:36.327Z,0
2018-07-01T02:54:01.859Z,0
2018-07-01T02:54:27.401Z,0
2018-07-01T02:54:52.971Z,0
2018-07-01T02:55:18.539Z,0
2018-07-01T02:55:44.106Z,0
2018-07-01T02:56:09.713Z,0
2018-07-01T02:56:35.279Z,0
2018-07-01T02:57:00.839Z,0
2018-07-01T02:57:26.417Z,0
2018-07-01T02:57:51.996Z,0
2018-07-01T02:58:17.561Z,0
2018-07-01T02:58:43.150Z,0
2018-07-01T02:59:08.750Z,0
2018-07-01T02:59:34.318Z,0
2018-07-01T02:59:59.922Z,0
2018-07-01T03:00:25.466Z,0
2018-07-01T03:00:51.048Z,0
2018-07-01T03:01:16.617Z,0
2018-07-01T03:01:42.199Z,0
2018-07-01T03:02:07.769Z,0
2018-07-01T03:02:33.327Z,0
2018-07-01T03:02:58.895Z,4
2018-07-01T03:03:24.468Z,4
2018-07-01T03:03:50.045Z,4
2018-07-01T03:04:15.619Z,4
2018-07-01T03:04:41.192Z,4
2018-07-01T03:05:06.825Z,4
2018-07-01T03:05:32.394Z,4
2018-07-01T03:05:57.939Z,4
2018-07-01T03:06:23.505Z,4
2018-07-01T03:06:49.071Z,4
2018-07-01T03:07:14.637Z,4
2018-07-01T03:07:40.220Z,4
2018-07-01T03:08:05.799Z,4
2018-07-01T03:08:31.356Z,4
2018-07-01T03:08:56.918Z,4
2018-07-01T03:09:22.492Z,4
2018-07-01T03:09:48.042Z,0
2018-07-01T03:10:13.612Z,0
2018-07-01T03:10:39.191Z,0
2018-07-01T03:11:04.761Z,0
2018-07-01T03:11:30.324Z,0
2018-07-01T03:11:55.902Z,0
2018-07-01T03:12:21.458Z,0
2018-07-01T03:12:47.037Z,0
2018-07-01T03:13:12.587Z,0
2018-07-01T03:13:38.162Z,0
2018-07-01T03:14:03.718Z,0
2018-07-01T03:14:29.294Z,0
2018-07-01T03:14:54.887Z,4
2018-07-01T03:15:20.472Z,4
2018-07-01T03:15:46.030Z,4
2018-07-01T03:16:11.619Z,4
2018-07-01T03:16:37.203Z,4
2018-07-01T03:17:02.793Z,4
2018-07-01T03:17:28.382Z,4
2018-07-01T03:17:53.949Z,4
2018-07-01T03:18:19.520Z,4
2018-07-01T03:18:45.085Z,4
2018-07-01T03:19:10.641Z,4
2018-07-01T03:19:36.212Z,4
2018-07-01T03:20:01.819Z,4
2018-07-01T03:20:27.398Z,4
2018-07-01T03:20:52.994Z,4
2018-07-01T03:21:18.602Z,4
2018-07-01T03:21:44.180Z,4
2018-07-01T03:22:09.748Z,4
2018-07-01T03:22:35.306Z,4
2018-07-01T03:23:00.886Z,4
2018-07-01T03:23:26.486Z,4
2018-07-01T03:23:52.056Z,4
2018-07-01T03:24:17.622Z,4
2018-07-01T03:24:43.227Z,4
2018-07-01T03:25:08.789Z,4
2018-07-01T03:25:34.371Z,4
2018-07-01T03:25:59.929Z,4
2018-07-01T03:26:25.508Z,4
2018-07-01T03:26:51.076Z,4
2018-07-01T03:27:16.621Z,8
2018-07-01T03:27:42.201Z,8
2018-07-01T03:28:07.776Z,8
2018-07-01T03:28:33.346Z,8
2018-07-01T03:28:58.921Z,8
2018-07-01T03:29:24.480Z,8
2018-07-01T03:29:50.052Z,8
2018-07-01T03:30:15.620Z,4
2018-07-01T03:30:41.184Z,4
2018-07-01T03:31:06.744Z,4
2018-07-01T03:31:32.312Z,4
2018-07-01T03:31:57.882Z,4
2018-07-01T03:32:23.472Z,4
2018-07-01T03:32:49.036Z,4
2018-07-01T03:33:14.591Z,4
2018-07-01T03:33:40.172Z,4
2018-07-01T03:34:05.754Z,4
2018-07-01T03:34:31.334Z,4
2018-07-01T03:34:56.892Z,4
2018-07-01T03:35:22.465Z,4
2018-07-01T03:35:48.020Z,4
2018-07-01T03:36:13.578Z,4
2018-07-01T03:36:39.170Z,4
2018-07-01T03:37:04.735Z,4
2018-07-01T03:37:30.332Z,4
2018-07-01T03:37:55.895Z,4
2018-07-01T03:38:21.470Z,4
2018-07-01T03:38:47.068Z,4
2018-07-01T03:39:12.622Z,4
2018-07-01T03:39:38.181Z,4
2018-07-01T03:40:03.772Z,4
2018-07-01T03:40:29.360Z,4
2018-07-01T03:40:54.909Z,4
2018-07-01T03:41:20.467Z,4
2018-07-01T03:41:46.058Z,8
2018-07-01T03:42:11.631Z,8
2018-07-01T03:42:37.209Z,8
2018-07-01T03:43:02.764Z,8
2018-07-01T03:43:28.367Z,8
2018-07-01T03:43:53.961Z,8
2018-07-01T03:44:19.512Z,8
2018-07-01T03:44:45.082Z,8
2018-07-01T03:45:10.661Z,8
2018-07-01T03:45:36.228Z,8
2018-07-01T03:46:01.788Z,8
2018-07-01T03:46:27.361Z,8
2018-07-01T03:46:52.961Z,8
2018-07-01T03:47:18.507Z,8
2018-07-01T03:47:44.070Z,8
2018-07-01T03:48:09.689Z,8
2018-07-01T03:48:35.259Z,8
2018-07-01T03:49:00.878Z,8
2018-07-01T03:49:26.468Z,8
2018-07-01T03:49:52.052Z,8
2018-07-01T03:50:17.759Z,8
2018-07-01T03:50:43.198Z,8
2018-07-01T03:51:08.770Z,8
2018-07-01T03:51:34.339Z,4
2018-07-01T03:51:59.918Z,4
2018-07-01T03:52:25.476Z,4
2018-07-01T03:52:51.052Z,8
2018-07-01T03:53:16.605Z,8
2018-07-01T03:53:42.176Z,8
2018-07-01T03:54:07.756Z,8
2018-07-01T03:54:33.329Z,8
2018-07-01T03:54:58.911Z,8
2018-07-01T03:55:24.458Z,8
2018-07-01T03:55:50.055Z,8
2018-07-01T03:56:15.623Z,8
2018-07-01T03:56:41.162Z,8
2018-07-01T03:57:06.758Z,8
2018-07-01T03:57:32.332Z,8
2018-07-01T03:57:57.894Z,8
2018-07-01T03:58:23.470Z,12
2018-07-01T03:58:49.055Z,12
2018-07-01T03:59:14.594Z,8
2018-07-01T03:59:40.158Z,8
2018-07-01T04:00:05.745Z,8
2018-07-01T04:00:31.367Z,8
2018-07-01T04:00:56.907Z,8
2018-07-01T04:01:22.475Z,8
2018-07-01T04:01:48.053Z,8
2018-07-01T04:02:13.626Z,8
2018-07-01T04:02:39.217Z,8
2018-07-01T04:03:04.754Z,8
2018-07-01T04:03:30.327Z,8
2018-07-01T04:03:55.892Z,8
2018-07-01T04:04:21.472Z,8
2018-07-01T04:04:47.041Z,12
2018-07-01T04:05:12.587Z,12
2018-07-01T04:05:38.174Z,12
2018-07-01T04:06:03.764Z,12
2018-07-01T04:06:29.340Z,8
2018-07-01T04:06:54.901Z,8
2018-07-01T04:07:20.449Z,8
2018-07-01T04:07:46.034Z,8
2018-07-01T04:08:11.601Z,8
2018-07-01T04:08:37.185Z,8
2018-07-01T04:09:02.744Z,8
2018-07-01T04:09:28.298Z,8
2018-07-01T04:09:53.859Z,8
2018-07-01T04:10:19.439Z,8
2018-07-01T04:10:44.984Z,12
2018-07-01T04:11:10.576Z,12
2018-07-01T04:11:36.146Z,12
2018-07-01T04:12:01.705Z,12
2018-07-01T04:12:27.260Z,12
2018-07-01T04:12:52.835Z,12
2018-07-01T04:13:18.434Z,12
2018-07-01T04:13:44.058Z,12
2018-07-01T04:14:09.604Z,12
2018-07-01T04:14:35.178Z,12
2018-07-01T04:15:00.743Z,12
2018-07-01T04:15:26.334Z,12
2018-07-01T04:15:51.885Z,12
2018-07-01T04:16:17.459Z,12
2018-07-01T04:16:43.044Z,12
2018-07-01T04:17:08.628Z,12
2018-07-01T04:17:34.181Z,12
2018-07-01T04:17:59.774Z,12
2018-07-01T04:18:25.340Z,12
2018-07-01T04:18:50.935Z,12
2018-07-01T04:19:16.493Z,12
2018-07-01T04:19:42.100Z,12
2018-07-01T04:20:07.673Z,12
2018-07-01T04:20:33.236Z,12
2018-07-01T04:20:58.829Z,12
2018-07-01T04:21:24.387Z,12
2018-07-01T04:21:49.956Z,8
2018-07-01T04:22:15.529Z,8
2018-07-01T04:22:41.086Z,8
2018-07-01T04:23:06.647Z,8
2018-07-01T04:23:32.205Z,8
2018-07-01T04:23:57.772Z,8
2018-07-01T04:24:23.343Z,8
2018-07-01T04:24:48.919Z,8
2018-07-01T04:25:14.474Z,8
2018-07-01T04:25:40.049Z,8
2018-07-01T04:26:05.645Z,8
2018-07-01T04:26:31.224Z,8
2018-07-01T04:26:56.782Z,8
2018-07-01T04:27:22.360Z,8
2018-07-01T04:27:47.958Z,12
2018-07-01T04:28:13.537Z,12
2018-07-01T04:28:39.118Z,12
2018-07-01T04:29:04.679Z,12
2018-07-01T04:29:30.247Z,12
2018-07-01T04:29:55.861Z,12
2018-07-01T04:30:21.423Z,12
2018-07-01T04:30:47.019Z,12
2018-07-01T04:31:12.711Z,12
2018-07-01T04:31:38.243Z,12
2018-07-01T04:32:03.827Z,12
2018-07-01T04:32:29.394Z,12
2018-07-01T04:32:54.966Z,12
2018-07-01T04:33:20.541Z,12
2018-07-01T04:33:46.119Z,12
2018-07-01T04:34:11.683Z,12
2018-07-01T04:34:37.228Z,12
2018-07-01T04:35:02.826Z,12
2018-07-01T04:35:28.387Z,12
2018-07-01T04:35:53.967Z,12
2018-07-01T04:36:19.516Z,12
2018-07-01T04:36:45.115Z,12
2018-07-01T04:37:10.680Z,12
2018-07-01T04:37:36.263Z,12
2018-07-01T04:38:01.820Z,12
2018-07-01T04:38:27.381Z,12
2018-07-01T04:38:52.953Z,12
2018-07-01T04:39:18.540Z,12
2018-07-01T04:39:44.111Z,12
2018-07-01T04:40:09.669Z,12
2018-07-01T04:40:35.230Z,12
2018-07-01T04:41:00.797Z,12
2018-07-01T04:41:26.364Z,16
2018-07-01T04:41:51.906Z,16
2018-07-01T04:42:17.453Z,16
2018-07-01T04:42:43.031Z,16
2018-07-01T04:43:08.592Z,12
2018-07-01T04:43:34.185Z,12
2018-07-01T04:43:59.746Z,12
2018-07-01T04:44:25.315Z,12
2018-07-01T04:44:50.907Z,12
2018-07-01T04:45:16.510Z,12
2018-07-01T04:45:42.068Z,12
2018-07-01T04:46:07.633Z,12
2018-07-01T04:46:33.217Z,12
2018-07-01T04:46:58.772Z,12
2018-07-01T04:47:24.365Z,12
2018-07-01T04:47:49.944Z,16
2018-07-01T04:48:15.512Z,16
2018-07-01T04:48:41.077Z,16
2018-07-01T04:49:06.640Z,16
2018-07-01T04:49:32.210Z,16
2018-07-01T04:49:57.777Z,16
2018-07-01T04:50:23.351Z,16
2018-07-01T04:50:48.899Z,12
2018-07-01T04:51:14.459Z,12
2018-07-01T04:51:40.044Z,12
2018-07-01T04:52:05.614Z,12
2018-07-01T04:52:31.169Z,12
2018-07-01T04:52:56.736Z,12
2018-07-01T04:53:22.322Z,12
2018-07-01T04:53:47.899Z,12
2018-07-01T04:54:13.497Z,12
2018-07-01T04:54:39.069Z,12
2018-07-01T04:55:04.716Z,12
2018-07-01T04:55:30.219Z,12
2018-07-01T04:55:55.776Z,12
2018-07-01T04:56:21.343Z,12
2018-07-01T04:56:46.907Z,12
2018-07-01T04:57:12.445Z,12
2018-07-01T04:57:38.020Z,12
2018-07-01T04:58:03.587Z,12
2018-07-01T04:58:29.149Z,16
2018-07-01T04:58:54.731Z,16
2018-07-01T04:59:20.307Z,16
2018-07-01T04:59:45.885Z,16
2018-07-01T05:00:11.448Z,16
2018-07-01T05:00:37.017Z,16
2018-07-01T05:01:02.592Z,16
2018-07-01T05:01:28.145Z,16
2018-07-01T05:01:53.771Z,16
2018-07-01T05:02:19.280Z,16
2018-07-01T05:02:44.829Z,16
2018-07-01T05:03:10.402Z,16
2018-07-01T05:03:35.965Z,16
2018-07-01T05:04:01.517Z,16
2018-07-01T05:04:27.091Z,16
2018-07-01T05:04:52.618Z,16
2018-07-01T05:05:18.195Z,16
2018-07-01T05:05:43.783Z,12
2018-07-01T05:06:09.369Z,16
2018-07-01T05:06:34.901Z,16
2018-07-01T05:07:00.483Z,16
2018-07-01T05:07:26.060Z,16
2018-07-01T05:07:51.612Z,16
2018-07-01T05:08:17.166Z,16
2018-07-01T05:08:42.731Z,16
2018-07-01T05:09:08.308Z,16
2018-07-01T05:09:33.897Z,16
2018-07-01T05:09:59.465Z,16
2018-07-01T05:10:25.025Z,16
2018-07-01T05:10:50.593Z,16
2018-07-01T05:11:16.151Z,16
2018-07-01T05:11:41.709Z,16
2018-07-01T05:12:07.273Z,16
2018-07-01T05:12:32.837Z,16
2018-07-01T05:12:58.410Z,16
2018-07-01T05:13:23.960Z,16
2018-07-01T05:13:49.506Z,16
2018-07-01T05:14:15.141Z,16
2018-07-01T05:14:40.676Z,16
2018-07-01T05:15:06.252Z,16
2018-07-01T05:15:31.814Z,16
2018-07-01T05:15:57.384Z,20
2018-07-01T05:16:22.955Z,16
2018-07-01T05:16:48.515Z,20
2018-07-01T05:17:14.152Z,20
2018-07-01T05:17:39.671Z,24
2018-07-01T05:18:05.245Z,28
2018-07-01T05:18:30.821Z,28
2018-07-01T05:18:56.390Z,28
2018-07-01T05:19:21.956Z,32
2018-07-01T05:19:47.526Z,32
2018-07-01T05:20:13.152Z,36
2018-07-01T05:20:38.705Z,40
2018-07-01T05:21:04.265Z,40
2018-07-01T05:21:29.837Z,44
2018-07-01T05:21:55.411Z,44
2018-07-01T05:22:20.964Z,48
2018-07-01T05:22:46.540Z,52
2018-07-01T05:23:12.082Z,52
2018-07-01T05:23:37.659Z,56
2018-07-01T05:24:03.215Z,56
2018-07-01T05:24:28.798Z,60
2018-07-01T05:24:54.377Z,64
2018-07-01T05:25:19.927Z,64
2018-07-01T05:25:45.498Z,68
2018-07-01T05:26:11.074Z,68
2018-07-01T05:26:36.643Z,72
2018-07-01T05:27:02.198Z,72
2018-07-01T05:27:27.799Z,76
2018-07-01T05:27:53.379Z,76
2018-07-01T05:28:18.957Z,76
2018-07-01T05:28:44.513Z,80
2018-07-01T05:29:10.093Z,80
2018-07-01T05:29:35.662Z,80
2018-07-01T05:30:01.241Z,80
2018-07-01T05:30:26.822Z,80
2018-07-01T05:30:52.366Z,80
2018-07-01T05:31:17.917Z,80
2018-07-01T05:31:43.478Z,80
2018-07-01T05:32:09.073Z,80
2018-07-01T05:32:34.687Z,80
2018-07-01T05:33:00.246Z,84
2018-07-01T05:33:25.796Z,80
2018-07-01T05:33:51.365Z,80
2018-07-01T05:34:16.913Z,80
2018-07-01T05:34:42.493Z,80
2018-07-01T05:35:08.057Z,80
2018-07-01T05:35:33.653Z,80
2018-07-01T05:35:59.205Z,80
2018-07-01T05:36:24.779Z,80
2018-07-01T05:36:50.367Z,80
2018-07-01T05:37:15.909Z,80
2018-07-01T05:37:41.447Z,80
2018-07-01T05:38:07.031Z,80
2018-07-01T05:38:32.585Z,80
2018-07-01T05:38:58.187Z,80
2018-07-01T05:39:23.740Z,80
2018-07-01T05:39:49.300Z,80
2018-07-01T05:40:14.879Z,80
2018-07-01T05:40:40.482Z,76
2018-07-01T05:41:06.066Z,76
2018-07-01T05:41:31.634Z,76
2018-07-01T05:41:57.206Z,76
2018-07-01T05:42:22.760Z,76
2018-07-01T05:42:48.333Z,76
2018-07-01T05:43:13.929Z,76
2018-07-01T05:43:39.490Z,76
2018-07-01T05:44:05.059Z,80
2018-07-01T05:44:30.649Z,80
2018-07-01T05:44:56.236Z,80
2018-07-01T05:45:21.819Z,80
2018-07-01T05:45:47.374Z,80
2018-07-01T05:46:12.981Z,80
2018-07-01T05:46:38.546Z,76
2018-07-01T05:47:04.147Z,76
2018-07-01T05:47:29.728Z,76
2018-07-01T05:47:55.316Z,80
2018-07-01T05:48:20.867Z,80
2018-07-01T05:48:46.443Z,80
2018-07-01T05:49:12.011Z,76
2018-07-01T05:49:37.585Z,76
2018-07-01T05:50:03.133Z,76
2018-07-01T05:50:28.736Z,76
2018-07-01T05:50:54.289Z,76
2018-07-01T05:51:19.868Z,76
2018-07-01T05:51:45.459Z,80
2018-07-01T05:52:11.023Z,80
2018-07-01T05:52:36.592Z,76
2018-07-01T05:53:02.141Z,76
2018-07-01T05:53:27.703Z,76
2018-07-01T05:53:53.256Z,76
2018-07-01T05:54:18.843Z,76
2018-07-01T05:54:44.386Z,72
2018-07-01T05:55:09.988Z,76
2018-07-01T05:55:35.551Z,76
2018-07-01T05:56:01.121Z,76
2018-07-01T05:56:26.693Z,76
2018-07-01T05:56:52.280Z,76
2018-07-01T05:57:17.848Z,76
2018-07-01T05:57:43.421Z,76
2018-07-01T05:58:08.968Z,72
2018-07-01T05:58:34.557Z,72
2018-07-01T05:59:00.140Z,76
2018-07-01T05:59:25.700Z,136
2018-07-01T05:59:51.257Z,136
2018-07-01T06:00:16.861Z,136
2018-07-01T06:00:42.453Z,136
2018-07-01T06:01:08.060Z,136
2018-07-01T06:01:33.638Z,132
2018-07-01T06:01:59.210Z,136
2018-07-01T06:02:24.793Z,136
2018-07-01T06:02:50.336Z,132
2018-07-01T06:03:15.880Z,132
2018-07-01T06:03:41.456Z,136
2018-07-01T06:04:07.040Z,132
2018-07-01T06:04:32.616Z,132
2018-07-01T06:04:58.172Z,132
2018-07-01T06:05:23.723Z,132
2018-07-01T06:05:49.275Z,132
2018-07-01T06:06:14.856Z,132
2018-07-01T06:06:40.379Z,132
2018-07-01T06:07:05.953Z,128
2018-07-01T06:07:31.529Z,132
2018-07-01T06:07:57.119Z,132
2018-07-01T06:08:22.712Z,128
2018-07-01T06:08:48.301Z,128
2018-07-01T06:09:13.840Z,132
2018-07-01T06:09:39.435Z,132
2018-07-01T06:10:04.993Z,128
2018-07-01T06:10:30.550Z,128
2018-07-01T06:10:56.152Z,128
2018-07-01T06:11:21.706Z,124
2018-07-01T06:11:47.264Z,128
2018-07-01T06:12:12.812Z,128
2018-07-01T06:12:38.387Z,128
2018-07-01T06:13:03.946Z,124